Time;durP1;ratioP1;P1;durP2;ratioP2;P2;SDS_P1;SDS_P2;PMS_P1;PMS_P2;Temp;Humidity;BMP_temperature;BMP_pressure;BME280_temperature;BME280_humidity;BME280_pressure;Samples;Min_cycle;Max_cycle;Signal;HPM_P1;HPM_P2
2022/12/31 00:00:54;;;;;;;;;;;;;;;27.27;25.43;101766.19;5098098;28;1158;-19
2022/12/31 00:03:19;;;;;;;;;;;;;;;26.87;26.19;101763.88;5097254;28;1957;-19
2022/12/31 00:05:45;;;;;;;;;;;;;;;27.00;26.10;101768.00;5098188;28;1150;-19
2022/12/31 00:08:10;;;;;;;;;;;;;;;28.17;24.49;101765.91;5098005;28;1097;-19
2022/12/31 00:10:40;;;;;;;;;;;;;;;28.74;23.61;101764.31;5097752;28;1089;-19
2022/12/31 00:13:08;;;;;;;;;;;;;;;27.14;26.10;101772.03;5084387;28;1157;-19
2022/12/31 00:15:34;;;;;;;;;;;;;;;26.89;26.67;101786.13;5097331;28;1073;-19
2022/12/31 00:17:59;;;;;;;;;;;;;;;27.11;26.30;101783.16;5097562;28;1069;-19
2022/12/31 00:20:24;;;;;;;;;;;;;;;27.42;25.80;101784.50;5097554;28;1093;-19
2022/12/31 00:22:50;;;;;;;;;;;;;;;28.37;24.15;101785.44;5096975;28;1993;-19
2022/12/31 00:25:15;;;;;;;;;;;;;;;27.90;25.21;101792.19;5097209;28;1125;-19
2022/12/31 00:27:40;;;;;;;;;;;;;;;27.28;26.21;101797.59;5097630;28;1043;-19
2022/12/31 00:30:06;;;;;;;;;;;;;;;27.24;26.26;101807.84;5097764;28;1145;-19
2022/12/31 00:32:31;;;;;;;;;;;;;;;27.41;25.96;101805.25;5096946;28;1046;-19
2022/12/31 00:34:57;;;;;;;;;;;;;;;28.41;24.09;101792.19;5097445;28;1026;-19
2022/12/31 00:37:22;;;;;;;;;;;;;;;28.64;23.90;101807.81;5097133;28;1124;-19
2022/12/31 00:39:47;;;;;;;;;;;;;;;27.25;26.28;101797.91;5097013;28;912;-19
2022/12/31 00:42:12;;;;;;;;;;;;;;;27.29;26.12;101801.16;5097371;28;1886;-19
2022/12/31 00:44:38;;;;;;;;;;;;;;;27.35;26.04;101801.38;5096726;28;1041;-19
2022/12/31 00:47:03;;;;;;;;;;;;;;;28.18;24.68;101808.19;5096582;28;1074;-19
2022/12/31 00:49:28;;;;;;;;;;;;;;;28.62;24.31;101811.69;5097276;28;1050;-19
2022/12/31 00:51:53;;;;;;;;;;;;;;;27.43;25.97;101805.09;5096762;28;1050;-19
2022/12/31 00:54:19;;;;;;;;;;;;;;;27.30;26.23;101816.34;5096962;28;1141;-19
2022/12/31 00:56:44;;;;;;;;;;;;;;;27.34;26.04;101813.16;5096944;28;1050;-19
2022/12/31 00:59:09;;;;;;;;;;;;;;;27.96;25.50;101814.03;5097072;28;1153;-20
2022/12/31 01:01:36;;;;;;;;;;;;;;;28.51;24.36;101810.16;5096837;28;1180;-19
2022/12/31 01:04:21;;;;;;;;;;;;;;;27.65;25.39;101819.09;5094073;28;1960;-19
2022/12/31 01:06:47;;;;;;;;;;;;;;;27.17;26.50;101823.03;5096046;28;1518;-19
2022/12/31 01:09:12;;;;;;;;;;;;;;;27.28;26.13;101824.59;5096637;28;1161;-19
2022/12/31 01:11:38;;;;;;;;;;;;;;;27.90;25.43;101820.09;5083568;28;1048;-19
2022/12/31 01:14:07;;;;;;;;;;;;;;;28.64;24.09;101824.06;5096465;28;1047;-19
2022/12/31 01:16:37;;;;;;;;;;;;;;;27.90;25.11;101828.19;5092039;28;877;-19
2022/12/31 01:19:03;;;;;;;;;;;;;;;27.31;26.32;101831.56;5096348;28;1475;-19
2022/12/31 01:21:29;;;;;;;;;;;;;;;27.66;25.79;101827.03;5096252;28;1264;-19
2022/12/31 01:23:54;;;;;;;;;;;;;;;27.98;25.36;101821.97;5096580;28;1957;-19
2022/12/31 01:26:19;;;;;;;;;;;;;;;28.69;24.24;101819.00;5096064;28;1038;-19
2022/12/31 01:28:45;;;;;;;;;;;;;;;28.01;25.05;101812.69;5091523;28;890;-19
2022/12/31 01:31:11;;;;;;;;;;;;;;;27.53;26.08;101811.25;5095731;28;1095;-20
2022/12/31 01:33:37;;;;;;;;;;;;;;;27.22;26.64;101814.44;5097039;28;1046;-19
2022/12/31 01:36:06;;;;;;;;;;;;;;;27.51;25.94;101815.97;5096103;28;1026;-19
2022/12/31 01:38:31;;;;;;;;;;;;;;;28.43;24.78;101811.81;5096483;28;1119;-19
2022/12/31 01:40:57;;;;;;;;;;;;;;;28.73;24.17;101809.50;5095756;28;987;-19
2022/12/31 01:43:22;;;;;;;;;;;;;;;27.72;25.67;101812.91;5096428;28;1980;-19
2022/12/31 01:45:51;;;;;;;;;;;;;;;27.49;26.09;101810.72;5096165;28;1066;-19
2022/12/31 01:48:19;;;;;;;;;;;;;;;27.58;26.18;101811.63;5095219;28;1200;-19
2022/12/31 01:50:45;;;;;;;;;;;;;;;28.59;24.57;101816.41;5094968;28;1054;-19
2022/12/31 01:53:10;;;;;;;;;;;;;;;28.73;24.25;101814.91;5089530;28;921;-19
2022/12/31 01:55:37;;;;;;;;;;;;;;;27.82;25.57;101817.34;5096445;28;1193;-19
2022/12/31 01:58:07;;;;;;;;;;;;;;;27.42;26.41;101815.09;5094520;28;1046;-19
2022/12/31 02:00:32;;;;;;;;;;;;;;;27.50;26.41;101809.72;5095002;28;1146;-19
2022/12/31 02:02:58;;;;;;;;;;;;;;;28.14;25.12;101812.22;5095458;28;1901;-19
2022/12/31 02:05:25;;;;;;;;;;;;;;;28.66;24.50;101811.16;5096287;28;1053;-19
2022/12/31 02:07:51;;;;;;;;;;;;;;;27.65;25.74;101817.25;5095969;28;1138;-19
2022/12/31 02:10:16;;;;;;;;;;;;;;;27.47;26.01;101810.06;5096256;28;1126;-19
2022/12/31 02:12:41;;;;;;;;;;;;;;;27.57;26.05;101817.19;5096144;28;1220;-19
2022/12/31 02:15:07;;;;;;;;;;;;;;;27.53;26.02;101813.97;5095556;28;1112;-19
2022/12/31 02:17:32;;;;;;;;;;;;;;;28.51;24.39;101808.28;5094684;28;1040;-19
2022/12/31 02:20:00;;;;;;;;;;;;;;;28.90;23.98;101823.03;5095764;28;1078;-19
2022/12/31 02:22:41;;;;;;;;;;;;;;;27.64;25.96;101820.97;5095634;28;1905;-19
2022/12/31 02:25:35;;;;;;;;;;;;;;;27.59;26.12;101820.59;5096306;28;1205;-19
2022/12/31 02:28:26;;;;;;;;;;;;;;;27.78;25.69;101821.41;5077726;28;1169;-19
2022/12/31 02:30:53;;;;;;;;;;;;;;;28.63;24.60;101819.63;5094050;28;1083;-19
2022/12/31 02:33:23;;;;;;;;;;;;;;;28.86;24.15;101824.41;5094786;28;1197;-19
2022/12/31 02:35:50;;;;;;;;;;;;;;;27.75;25.77;101826.13;5095705;28;1110;-19
2022/12/31 02:38:22;;;;;;;;;;;;;;;27.55;26.33;101822.75;5094403;28;1213;-19
2022/12/31 02:40:47;;;;;;;;;;;;;;;27.66;26.04;101824.31;5094218;28;1067;-19
2022/12/31 02:43:13;;;;;;;;;;;;;;;27.97;25.70;101823.84;5099208;28;1905;-20
2022/12/31 02:45:46;;;;;;;;;;;;;;;28.79;24.16;101828.78;5099644;28;1101;-19
2022/12/31 02:48:11;;;;;;;;;;;;;;;28.11;25.14;101827.78;5098334;28;1039;-19
2022/12/31 02:50:36;;;;;;;;;;;;;;;27.86;25.59;101813.31;5099081;28;1034;-19
2022/12/31 02:53:08;;;;;;;;;;;;;;;27.78;26.08;101816.81;5098893;28;891;-19
2022/12/31 02:55:48;;;;;;;;;;;;;;;27.47;26.25;101834.38;5099137;28;1138;-19
2022/12/31 02:58:14;;;;;;;;;;;;;;;28.53;24.82;101827.91;5099017;28;1089;-19
2022/12/31 03:03:24;;;;;;;;;;;;;;;27.67;25.88;101836.00;5098933;28;1964;-19
2022/12/31 03:05:49;;;;;;;;;;;;;;;27.69;26.03;101829.47;5088138;28;948;-19
2022/12/31 03:08:22;;;;;;;;;;;;;;;27.59;26.16;101834.09;5097699;28;1206;-19
2022/12/31 03:10:47;;;;;;;;;;;;;;;27.96;25.76;101830.25;5098923;28;1134;-19
2022/12/31 03:13:12;;;;;;;;;;;;;;;28.81;24.09;101833.00;5085408;28;1154;-19
2022/12/31 03:15:37;;;;;;;;;;;;;;;28.52;24.54;101833.50;5098236;28;1081;-19
2022/12/31 03:18:06;;;;;;;;;;;;;;;27.75;25.85;101838.78;5098880;28;1149;-19
2022/12/31 03:23:21;;;;;;;;;;;;;;;27.70;25.97;101836.56;5098370;28;1913;-19
2022/12/31 03:25:46;;;;;;;;;;;;;;;28.58;24.67;101832.81;5098726;28;1030;-19
2022/12/31 03:28:13;;;;;;;;;;;;;;;28.69;24.70;101839.78;5093495;28;1069;-19
2022/12/31 03:30:39;;;;;;;;;;;;;;;27.71;25.89;101843.66;5093094;28;1201;-19
2022/12/31 03:33:04;;;;;;;;;;;;;;;27.59;26.07;101839.50;5098508;28;1117;-19
2022/12/31 03:35:31;;;;;;;;;;;;;;;27.74;26.11;101840.63;5098326;28;1035;-19
2022/12/31 03:37:56;;;;;;;;;;;;;;;27.70;26.24;101846.50;5098310;28;1142;-19
2022/12/31 03:40:22;;;;;;;;;;;;;;;28.63;24.38;101841.28;5098081;28;1046;-19
2022/12/31 03:42:48;;;;;;;;;;;;;;;28.67;24.33;101831.84;5098285;28;1910;-19
2022/12/31 03:45:13;;;;;;;;;;;;;;;27.60;26.39;101838.50;5098489;28;1106;-19
2022/12/31 03:47:38;;;;;;;;;;;;;;;27.25;26.87;101849.22;5098482;28;1185;-19
2022/12/31 03:50:04;;;;;;;;;;;;;;;27.59;26.48;101845.75;5098431;28;999;-19
2022/12/31 03:52:29;;;;;;;;;;;;;;;28.18;25.43;101843.34;5097140;28;1137;-19
2022/12/31 03:54:55;;;;;;;;;;;;;;;28.71;24.35;101845.91;5098232;28;1038;-19
2022/12/31 03:57:20;;;;;;;;;;;;;;;27.75;25.81;101849.59;5098223;28;1061;-19
2022/12/31 03:59:45;;;;;;;;;;;;;;;27.65;26.42;101852.38;5097730;28;1152;-19
2022/12/31 04:02:11;;;;;;;;;;;;;;;27.56;26.55;101859.56;5097901;28;1973;-19
2022/12/31 04:04:36;;;;;;;;;;;;;;;27.62;26.35;101855.41;5092734;28;1141;-19
2022/12/31 04:07:01;;;;;;;;;;;;;;;28.21;25.63;101857.41;5097717;28;1081;-19
2022/12/31 04:09:26;;;;;;;;;;;;;;;28.67;24.47;101850.78;5097840;28;1093;-19
2022/12/31 04:11:52;;;;;;;;;;;;;;;27.81;25.92;101858.94;5098020;28;1133;-19
2022/12/31 04:14:17;;;;;;;;;;;;;;;27.58;26.29;101867.53;5097217;28;1197;-19
2022/12/31 04:16:43;;;;;;;;;;;;;;;28.48;24.16;101865.44;5097968;28;1134;-19
2022/12/31 04:19:09;;;;;;;;;;;;;;;28.50;23.20;101866.16;5097008;28;1002;-19
2022/12/31 04:21:34;;;;;;;;;;;;;;;27.85;24.05;101863.84;5097419;28;1141;-19
2022/12/31 04:24:00;;;;;;;;;;;;;;;26.96;25.81;101866.53;5097370;28;1973;-19
2022/12/31 04:26:25;;;;;;;;;;;;;;;27.56;20.92;101866.84;5084576;28;1129;-18
2022/12/31 04:28:51;;;;;;;;;;;;;;;26.79;19.92;101869.09;5097035;28;1181;-18
2022/12/31 04:31:16;;;;;;;;;;;;;;;25.92;21.05;101872.94;5097323;28;1118;-18
2022/12/31 04:33:41;;;;;;;;;;;;;;;26.47;22.01;101865.88;5096924;28;1192;-18
2022/12/31 04:36:07;;;;;;;;;;;;;;;28.20;21.59;101869.25;5097474;28;1078;-18
2022/12/31 04:38:32;;;;;;;;;;;;;;;27.33;23.66;101875.47;5096301;28;1119;-18
2022/12/31 04:41:16;;;;;;;;;;;;;;;26.83;24.12;101875.84;5097008;28;1054;-18
2022/12/31 04:43:41;;;;;;;;;;;;;;;28.41;22.50;101876.09;5096665;28;1902;-18
2022/12/31 04:46:06;;;;;;;;;;;;;;;28.14;22.93;101875.31;5097058;28;1035;-18
2022/12/31 04:48:32;;;;;;;;;;;;;;;26.61;20.41;101883.38;5096944;28;1006;-18
2022/12/31 04:50:57;;;;;;;;;;;;;;;26.08;21.03;101874.97;5096774;28;1062;-18
2022/12/31 04:53:23;;;;;;;;;;;;;;;26.73;19.80;101877.75;5090203;28;1221;-18
2022/12/31 04:55:48;;;;;;;;;;;;;;;27.30;18.55;101879.34;5096710;28;1120;-18
2022/12/31 04:58:14;;;;;;;;;;;;;;;27.48;18.23;101884.69;5096881;28;1122;-18
2022/12/31 05:00:39;;;;;;;;;;;;;;;25.88;19.43;101887.69;5095819;28;1209;-19
2022/12/31 05:03:04;;;;;;;;;;;;;;;24.28;20.88;101880.53;5096554;28;1967;-14
2022/12/31 05:05:30;;;;;;;;;;;;;;;24.74;20.14;101876.53;5095483;28;903;-14
2022/12/31 05:07:55;;;;;;;;;;;;;;;25.37;19.62;101888.78;5094517;28;1264;-14
2022/12/31 05:10:20;;;;;;;;;;;;;;;25.39;19.11;101889.44;5085176;28;995;-14
2022/12/31 05:12:45;;;;;;;;;;;;;;;23.66;21.13;101885.81;5096249;28;1070;-14
2022/12/31 05:15:11;;;;;;;;;;;;;;;23.64;21.50;101888.66;5094833;28;1209;-13
2022/12/31 05:17:36;;;;;;;;;;;;;;;24.97;21.76;101895.13;5093985;28;2550;-14
2022/12/31 05:20:01;;;;;;;;;;;;;;;25.04;23.11;101890.91;5096202;28;2042;-14
2022/12/31 05:22:30;;;;;;;;;;;;;;;26.39;21.61;101887.38;5095789;28;1967;-14
2022/12/31 05:24:56;;;;;;;;;;;;;;;25.64;22.78;101897.13;5096559;28;2173;-14
2022/12/31 05:27:22;;;;;;;;;;;;;;;26.22;22.63;101902.47;5092540;28;2120;-14
2022/12/31 05:29:47;;;;;;;;;;;;;;;26.29;22.58;101903.56;5093164;28;2136;-14
2022/12/31 05:32:12;;;;;;;;;;;;;;;26.21;23.04;101898.06;5095399;28;2210;-14
2022/12/31 05:34:38;;;;;;;;;;;;;;;26.30;23.12;101910.66;5096202;28;1018;-14
2022/12/31 05:37:03;;;;;;;;;;;;;;;26.05;23.44;101910.34;5094906;28;1026;-14
2022/12/31 05:39:28;;;;;;;;;;;;;;;26.35;23.19;101907.53;5096364;28;1134;-14
2022/12/31 05:41:53;;;;;;;;;;;;;;;26.21;23.46;101920.47;5095551;28;1038;-14
2022/12/31 05:44:19;;;;;;;;;;;;;;;26.44;23.23;101911.19;5096231;28;1975;-14
2022/12/31 05:46:45;;;;;;;;;;;;;;;26.59;23.64;101917.75;5095447;28;1150;-14
2022/12/31 05:49:11;;;;;;;;;;;;;;;27.86;21.83;101926.91;5096230;28;1053;-14
2022/12/31 05:51:36;;;;;;;;;;;;;;;26.99;22.79;101921.06;5095140;28;1070;-14
2022/12/31 05:54:01;;;;;;;;;;;;;;;25.69;24.55;101924.50;5092621;28;913;-14
2022/12/31 05:56:27;;;;;;;;;;;;;;;27.47;22.87;101928.09;5095716;28;1209;-14
2022/12/31 05:58:52;;;;;;;;;;;;;;;27.38;22.42;101929.88;5095406;28;1192;-14
2022/12/31 06:01:17;;;;;;;;;;;;;;;27.09;23.06;101931.81;5095584;28;1051;-15
2022/12/31 06:03:42;;;;;;;;;;;;;;;26.43;24.15;101931.06;5093892;28;2614;-14
2022/12/31 06:06:08;;;;;;;;;;;;;;;26.18;24.84;101945.06;5085789;28;1090;-14
2022/12/31 06:08:33;;;;;;;;;;;;;;;26.19;24.35;101938.69;5095449;28;1114;-14
2022/12/31 06:10:58;;;;;;;;;;;;;;;26.34;24.34;101955.22;5095447;28;1038;-14
2022/12/31 06:13:24;;;;;;;;;;;;;;;25.89;25.34;101946.00;5095632;28;1042;-14
2022/12/31 06:15:49;;;;;;;;;;;;;;;27.16;23.51;101961.75;5095926;28;1117;-14
2022/12/31 06:18:14;;;;;;;;;;;;;;;27.11;23.13;101958.69;5094860;28;889;-14
2022/12/31 06:20:39;;;;;;;;;;;;;;;26.92;23.84;101965.91;5098976;28;1019;-14
2022/12/31 06:23:05;;;;;;;;;;;;;;;27.96;22.57;101972.75;5099071;28;1909;-14
2022/12/31 06:25:30;;;;;;;;;;;;;;;27.04;23.75;101973.81;5099386;28;1054;-14
2022/12/31 06:27:55;;;;;;;;;;;;;;;27.48;23.39;101979.28;5099499;28;1062;-14
2022/12/31 06:30:21;;;;;;;;;;;;;;;27.55;23.08;101981.34;5098879;28;1042;-14
2022/12/31 06:32:46;;;;;;;;;;;;;;;27.16;23.55;101983.38;5098935;28;2483;-14
2022/12/31 06:35:12;;;;;;;;;;;;;;;26.37;25.05;101986.47;5098906;28;1073;-14
2022/12/31 06:37:37;;;;;;;;;;;;;;;26.76;24.85;101974.63;5099215;28;1174;-14
2022/12/31 06:40:02;;;;;;;;;;;;;;;27.96;23.03;101994.41;5099495;28;1205;-14
2022/12/31 06:42:29;;;;;;;;;;;;;;;28.10;22.75;102010.03;5097988;28;1870;-14
2022/12/31 06:44:55;;;;;;;;;;;;;;;27.37;23.42;101993.03;5098734;28;1128;-14
2022/12/31 06:47:21;;;;;;;;;;;;;;;27.73;23.27;102003.84;5098975;28;967;-14
2022/12/31 06:49:46;;;;;;;;;;;;;;;28.19;22.29;101999.25;5098755;28;994;-15
2022/12/31 06:52:11;;;;;;;;;;;;;;;27.34;23.68;101988.78;5098442;28;1006;-14
2022/12/31 06:54:37;;;;;;;;;;;;;;;27.48;23.64;102002.75;5086547;28;1015;-14
2022/12/31 06:57:02;;;;;;;;;;;;;;;28.51;22.55;102000.47;5097852;28;1026;-14
2022/12/31 06:59:28;;;;;;;;;;;;;;;28.83;21.97;102008.88;5099122;28;1075;-14
2022/12/31 07:01:56;;;;;;;;;;;;;;;28.05;22.74;102008.78;5098694;28;2266;-14
2022/12/31 07:04:24;;;;;;;;;;;;;;;27.61;23.11;102015.91;5098115;28;1963;-14
2022/12/31 07:06:55;;;;;;;;;;;;;;;27.74;23.31;102010.94;5091555;28;1019;-14
2022/12/31 07:09:26;;;;;;;;;;;;;;;28.39;22.57;102013.44;5097750;28;1081;-14
2022/12/31 07:12:09;;;;;;;;;;;;;;;28.08;22.94;102017.44;5095983;28;1235;-14
2022/12/31 07:14:36;;;;;;;;;;;;;;;27.33;23.73;102024.06;5094896;28;1054;-14
2022/12/31 07:17:16;;;;;;;;;;;;;;;27.77;23.38;102017.06;5098425;28;1002;-14
2022/12/31 07:19:47;;;;;;;;;;;;;;;28.69;22.29;102027.47;5095801;28;983;-14
2022/12/31 07:22:14;;;;;;;;;;;;;;;28.68;22.38;102023.03;5096730;28;1963;-14
2022/12/31 07:24:40;;;;;;;;;;;;;;;27.69;22.95;102029.50;5098279;28;1058;-14
2022/12/31 07:27:23;;;;;;;;;;;;;;;27.42;23.72;102028.56;5097757;28;1039;-14
2022/12/31 07:30:02;;;;;;;;;;;;;;;28.40;22.80;102033.22;5086925;28;1119;-14
2022/12/31 07:32:46;;;;;;;;;;;;;;;28.50;22.12;102043.94;5088438;28;2359;-14
2022/12/31 07:35:15;;;;;;;;;;;;;;;27.70;23.26;102042.00;5097483;28;1058;-14
2022/12/31 07:37:47;;;;;;;;;;;;;;;27.74;24.10;102037.97;5097936;28;1304;-14
2022/12/31 07:40:27;;;;;;;;;;;;;;;27.89;23.64;102045.56;5096194;28;1027;-14
2022/12/31 07:43:01;;;;;;;;;;;;;;;27.71;23.74;102050.97;5097153;28;1961;-15
2022/12/31 07:45:41;;;;;;;;;;;;;;;26.95;24.82;102049.28;5096408;28;1082;-14
2022/12/31 07:48:13;;;;;;;;;;;;;;;28.41;22.99;102062.81;5097106;28;1126;-15
2022/12/31 07:50:38;;;;;;;;;;;;;;;27.84;23.14;102064.09;5096196;28;1344;-15
2022/12/31 07:53:04;;;;;;;;;;;;;;;27.69;23.40;102071.91;5098239;28;1074;-15
2022/12/31 07:55:29;;;;;;;;;;;;;;;28.02;23.32;102074.03;5097073;28;1560;-15
2022/12/31 07:57:56;;;;;;;;;;;;;;;27.67;23.57;102071.16;5097568;28;991;-15
2022/12/31 08:00:22;;;;;;;;;;;;;;;27.65;23.76;102075.88;5079300;28;1166;-15
2022/12/31 08:02:53;;;;;;;;;;;;;;;27.48;23.94;102078.41;5084003;28;1901;-15
2022/12/31 08:05:24;;;;;;;;;;;;;;;27.57;23.78;102084.75;5083853;28;927;-15
2022/12/31 08:08:05;;;;;;;;;;;;;;;27.54;24.11;102075.13;5094100;28;933;-15
2022/12/31 08:10:43;;;;;;;;;;;;;;;27.46;23.96;102075.03;5097011;28;1022;-14
2022/12/31 08:13:09;;;;;;;;;;;;;;;27.41;23.94;102083.59;5097585;28;1130;-15
2022/12/31 08:15:36;;;;;;;;;;;;;;;27.64;23.93;102091.28;5097840;28;1154;-15
2022/12/31 08:18:01;;;;;;;;;;;;;;;27.61;24.00;102086.19;5095966;28;1125;-15
2022/12/31 08:20:26;;;;;;;;;;;;;;;27.61;23.95;102084.31;5088172;28;1053;-15
2022/12/31 08:23:01;;;;;;;;;;;;;;;27.54;24.13;102074.25;5095577;28;1901;-14
2022/12/31 08:25:27;;;;;;;;;;;;;;;27.50;24.34;102082.69;5096661;28;974;-15
2022/12/31 08:28:05;;;;;;;;;;;;;;;27.52;24.08;102087.94;5095800;28;1118;-15
2022/12/31 08:31:00;;;;;;;;;;;;;;;27.51;24.41;102084.38;5091986;28;1080;-14
2022/12/31 08:33:31;;;;;;;;;;;;;;;27.53;24.13;102072.56;5081862;28;2598;-15
2022/12/31 08:36:35;;;;;;;;;;;;;;;27.50;24.21;102077.28;5095543;28;1064;-14
2022/12/31 08:39:07;;;;;;;;;;;;;;;27.83;24.12;102082.16;5033231;28;1064;-15
2022/12/31 08:41:32;;;;;;;;;;;;;;;28.30;23.13;102073.88;5017302;28;1196;-14
2022/12/31 08:43:57;;;;;;;;;;;;;;;28.14;23.45;102075.50;5058946;28;1953;-14
2022/12/31 08:46:34;;;;;;;;;;;;;;;27.84;23.69;102070.34;5096734;28;1066;-15
2022/12/31 08:49:00;;;;;;;;;;;;;;;27.55;24.43;102068.72;5096458;28;1169;-15
2022/12/31 08:51:25;;;;;;;;;;;;;;;27.42;24.50;102057.41;5096287;28;1081;-15
2022/12/31 08:53:52;;;;;;;;;;;;;;;27.44;24.51;102053.56;5096316;28;1062;-16
2022/12/31 08:56:23;;;;;;;;;;;;;;;27.41;24.53;102055.72;5091274;28;1028;-15
2022/12/31 08:59:08;;;;;;;;;;;;;;;26.61;25.51;102045.31;5094909;28;1083;-16
2022/12/31 09:01:38;;;;;;;;;;;;;;;27.21;24.56;102040.50;5072491;28;2307;-15
2022/12/31 09:04:30;;;;;;;;;;;;;;;27.28;24.57;102051.53;5084241;28;1898;-15
2022/12/31 09:06:56;;;;;;;;;;;;;;;27.39;24.78;102043.22;5065748;28;1289;-15
2022/12/31 09:09:40;;;;;;;;;;;;;;;27.32;24.47;102042.13;5096499;28;1046;-15
2022/12/31 09:12:17;;;;;;;;;;;;;;;27.25;24.62;102036.50;5084654;28;1078;-15
2022/12/31 09:14:43;;;;;;;;;;;;;;;27.03;25.04;102035.06;5096131;28;1022;-15
2022/12/31 09:17:20;;;;;;;;;;;;;;;27.21;24.67;102035.09;5096207;28;1057;-15
2022/12/31 09:19:46;;;;;;;;;;;;;;;27.28;24.81;102037.19;5089053;28;1054;-15
2022/12/31 09:22:11;;;;;;;;;;;;;;;27.17;24.63;102031.00;5095552;28;1594;-16
2022/12/31 09:24:36;;;;;;;;;;;;;;;26.83;25.25;102023.47;5095710;28;1913;-15
2022/12/31 09:27:16;;;;;;;;;;;;;;;27.01;24.94;102026.22;5094559;28;1118;-16
2022/12/31 09:30:00;;;;;;;;;;;;;;;27.17;24.63;102012.09;5082163;28;1013;-15
2022/12/31 09:32:32;;;;;;;;;;;;;;;27.16;25.35;102029.28;5088721;28;2407;-15
2022/12/31 09:35:15;;;;;;;;;;;;;;;27.14;25.01;102017.81;5095416;28;1018;-16
2022/12/31 09:37:41;;;;;;;;;;;;;;;27.20;25.01;102027.13;5095330;28;1082;-16
2022/12/31 09:40:26;;;;;;;;;;;;;;;27.15;25.00;102019.50;5095332;28;1071;-15
2022/12/31 09:42:58;;;;;;;;;;;;;;;26.75;25.50;102011.59;5072181;28;1893;-15
2022/12/31 09:45:32;;;;;;;;;;;;;;;26.99;25.05;102006.63;5095659;28;1323;-15
2022/12/31 09:48:16;;;;;;;;;;;;;;;27.09;25.09;102010.13;5095625;28;1104;-15
2022/12/31 09:50:56;;;;;;;;;;;;;;;27.18;25.19;102002.97;5096029;28;1031;-15
2022/12/31 09:53:22;;;;;;;;;;;;;;;26.71;25.66;101993.16;5100025;28;1070;-15
2022/12/31 09:55:48;;;;;;;;;;;;;;;26.95;25.47;101999.81;5100117;28;903;-15
2022/12/31 09:58:29;;;;;;;;;;;;;;;27.06;25.28;101993.41;5099877;28;1014;-15
2022/12/31 10:00:55;;;;;;;;;;;;;;;27.01;25.39;101992.00;5099472;28;1045;-16
2022/12/31 10:03:39;;;;;;;;;;;;;;;26.90;25.46;101978.69;5099403;28;2318;-15
2022/12/31 10:06:17;;;;;;;;;;;;;;;27.05;25.27;101978.19;5098654;28;1011;-16
2022/12/31 10:08:42;;;;;;;;;;;;;;;27.06;24.96;101974.50;5086847;28;888;-15
2022/12/31 10:11:26;;;;;;;;;;;;;;;27.19;24.88;101974.13;5099331;28;983;-15
2022/12/31 10:14:11;;;;;;;;;;;;;;;27.16;25.12;101975.25;5099752;28;1007;-15
2022/12/31 10:16:52;;;;;;;;;;;;;;;27.01;24.91;101970.41;5099456;28;1217;-15
2022/12/31 10:19:23;;;;;;;;;;;;;;;27.00;25.37;101967.81;5099330;28;1212;-15
2022/12/31 10:22:07;;;;;;;;;;;;;;;27.10;25.03;101970.47;5099313;28;1340;-15
2022/12/31 10:24:32;;;;;;;;;;;;;;;27.07;25.04;101968.94;5099614;28;1987;-15
2022/12/31 10:27:24;;;;;;;;;;;;;;;27.08;25.32;101961.69;5099532;28;1126;-15
2022/12/31 10:29:56;;;;;;;;;;;;;;;27.14;24.93;101959.22;5079075;28;1033;-16
2022/12/31 10:32:27;;;;;;;;;;;;;;;26.99;24.97;101955.34;5089470;28;2267;-15
2022/12/31 10:35:08;;;;;;;;;;;;;;;26.91;25.19;101956.06;5088964;28;1030;-15
2022/12/31 10:37:36;;;;;;;;;;;;;;;26.75;25.87;101948.66;5098771;28;1027;-15
2022/12/31 10:40:04;;;;;;;;;;;;;;;26.68;25.59;101956.50;5098090;28;1127;-15
2022/12/31 10:42:48;;;;;;;;;;;;;;;26.63;26.11;101950.69;5098863;28;1964;-15
2022/12/31 10:45:32;;;;;;;;;;;;;;;26.55;25.92;101956.88;5094824;28;963;-15
2022/12/31 10:48:06;;;;;;;;;;;;;;;26.61;26.22;101941.94;5098580;28;1098;-16
2022/12/31 10:50:34;;;;;;;;;;;;;;;26.63;26.02;101939.91;5098657;28;1115;-15
2022/12/31 10:53:18;;;;;;;;;;;;;;;26.45;26.10;101935.31;5098466;28;1085;-15
2022/12/31 10:55:49;;;;;;;;;;;;;;;26.39;26.45;101934.06;5086830;28;1026;-16
2022/12/31 10:58:33;;;;;;;;;;;;;;;26.40;26.53;101932.22;5098235;28;1039;-15
2022/12/31 11:01:14;;;;;;;;;;;;;;;26.36;26.26;101931.66;5098657;28;1069;-15
2022/12/31 11:03:45;;;;;;;;;;;;;;;26.32;26.49;101921.28;5084929;28;2460;-15
2022/12/31 11:06:10;;;;;;;;;;;;;;;26.55;26.18;101927.19;5098216;28;1130;-15
2022/12/31 11:08:55;;;;;;;;;;;;;;;26.44;26.27;101914.75;5097959;28;924;-15
2022/12/31 11:11:38;;;;;;;;;;;;;;;26.35;26.48;101916.50;5098187;28;1018;-15
2022/12/31 11:14:22;;;;;;;;;;;;;;;26.32;26.36;101916.75;5098461;28;1200;-16
2022/12/31 11:17:17;;;;;;;;;;;;;;;26.29;26.62;101911.66;5098633;28;1133;-15
2022/12/31 11:20:00;;;;;;;;;;;;;;;26.32;26.65;101900.56;5088384;28;1292;-15
2022/12/31 11:22:26;;;;;;;;;;;;;;;26.48;26.35;101909.88;5097706;28;1906;-15
2022/12/31 11:25:09;;;;;;;;;;;;;;;26.36;26.53;101911.94;5098084;28;999;-15
2022/12/31 11:27:45;;;;;;;;;;;;;;;26.32;26.55;101910.50;5098148;28;1050;-15
2022/12/31 11:30:17;;;;;;;;;;;;;;;26.33;26.82;101910.38;5097272;28;1318;-15
2022/12/31 11:32:43;;;;;;;;;;;;;;;26.31;26.58;101911.53;5091937;28;1748;-15
2022/12/31 11:35:27;;;;;;;;;;;;;;;26.89;25.97;101909.50;5098083;28;1038;-16
2022/12/31 11:38:08;;;;;;;;;;;;;;;26.49;26.64;101911.59;5085348;28;1091;-15
2022/12/31 11:40:42;;;;;;;;;;;;;;;26.27;26.94;101909.13;5096348;28;1443;-15
2022/12/31 11:43:23;;;;;;;;;;;;;;;26.28;26.84;101907.25;5096800;28;1906;-16
2022/12/31 11:46:06;;;;;;;;;;;;;;;26.22;26.87;101907.84;5077511;28;1142;-16
2022/12/31 11:48:50;;;;;;;;;;;;;;;26.20;27.00;101899.91;5092807;28;1070;-16
2022/12/31 11:51:15;;;;;;;;;;;;;;;26.44;26.73;101908.50;5097742;28;1037;-15
2022/12/31 11:54:01;;;;;;;;;;;;;;;26.35;26.62;101908.41;5097749;28;1225;-15
2022/12/31 11:56:30;;;;;;;;;;;;;;;26.19;27.05;101905.47;5068007;28;1181;-15
2022/12/31 11:58:55;;;;;;;;;;;;;;;26.16;27.16;101915.53;5096011;28;1063;-15
2022/12/31 12:01:25;;;;;;;;;;;;;;;26.16;26.99;101914.69;5096925;28;1153;-15
2022/12/31 12:03:51;;;;;;;;;;;;;;;26.19;27.28;101903.63;5085156;28;1897;-15
2022/12/31 12:06:17;;;;;;;;;;;;;;;26.17;26.99;101901.03;5096750;28;1082;-15
2022/12/31 12:08:42;;;;;;;;;;;;;;;26.86;26.04;101904.41;5097188;28;967;-15
2022/12/31 12:11:12;;;;;;;;;;;;;;;26.76;26.41;101910.72;5096040;28;1011;-15
2022/12/31 12:13:37;;;;;;;;;;;;;;;26.75;26.33;101897.38;5095904;28;1035;-15
2022/12/31 12:16:05;;;;;;;;;;;;;;;26.79;26.29;101898.78;5096823;28;1106;-15
2022/12/31 12:18:46;;;;;;;;;;;;;;;26.82;26.26;101897.59;5096249;28;1126;-15
2022/12/31 12:21:15;;;;;;;;;;;;;;;26.88;26.21;101908.66;5096615;28;1395;-15
2022/12/31 12:23:41;;;;;;;;;;;;;;;26.91;26.08;101902.06;5095697;28;1906;-15
2022/12/31 12:26:08;;;;;;;;;;;;;;;26.94;25.89;101900.94;5096791;28;1097;-15
2022/12/31 12:28:41;;;;;;;;;;;;;;;27.02;25.94;101904.59;5095935;28;1206;-16
2022/12/31 12:31:13;;;;;;;;;;;;;;;26.87;26.32;101904.25;5096824;28;1049;-15
2022/12/31 12:33:42;;;;;;;;;;;;;;;26.86;26.03;101904.41;5089335;28;2584;-15
2022/12/31 12:36:08;;;;;;;;;;;;;;;26.92;26.25;101908.34;5082272;28;1051;-15
2022/12/31 12:38:34;;;;;;;;;;;;;;;26.87;26.39;101904.25;5096951;28;1131;-16
2022/12/31 12:41:00;;;;;;;;;;;;;;;26.97;25.83;101903.31;5096745;28;1066;-15
2022/12/31 12:43:26;;;;;;;;;;;;;;;26.96;26.28;101901.63;5096427;28;1898;-15
2022/12/31 12:45:52;;;;;;;;;;;;;;;26.99;25.86;101901.31;5083180;28;873;-15
2022/12/31 12:48:29;;;;;;;;;;;;;;;26.95;26.23;101905.31;5095798;28;1155;-15
2022/12/31 12:50:55;;;;;;;;;;;;;;;27.23;26.02;101902.56;5096496;28;1106;-16
2022/12/31 12:53:31;;;;;;;;;;;;;;;26.94;26.21;101907.19;5095791;28;1039;-16
2022/12/31 12:56:03;;;;;;;;;;;;;;;26.87;26.27;101904.25;5096466;28;1026;-15
2022/12/31 12:58:33;;;;;;;;;;;;;;;26.86;26.04;101907.94;5093721;28;1065;-15
2022/12/31 13:01:01;;;;;;;;;;;;;;;26.93;26.32;101907.31;5096100;28;1524;-15
2022/12/31 13:03:26;;;;;;;;;;;;;;;26.78;26.32;101907.84;5090707;28;1956;-15
2022/12/31 13:05:55;;;;;;;;;;;;;;;26.90;26.18;101900.38;5087637;28;1110;-15